Boron, California
Current Conditions -  °F | °C
As of 9:55 AM on Friday 19 Dec 2014 (Local Time) from K9L2 Reporting Station
Clear Clear  
Wind Chill: 44°   Ceiling: Unl
Heat Index: 44°   Visibility: 10mi
Dew Point: 37°   Wind: 3mph
Humidity: 76%   Direction: 20°NNE
Pressure: 30.24"   Gusts: NA
Location:  35°N, 117.65°W
Report Text: K9L2 191755Z AUTO 02003KT 10SM CLR 07/03 A3024 RMK AO2 SLP252 60001 T00670028 10067 20000 50005 TSNO $
Loading
Personal Weather Stations






























Interactive Weather Map New forecast layout! Learn more

10-Day Weather Forecast

Advertisements
Track Severe Weather on mobile